Aviation Digital Data Service (ADDS)

Output produced by METARs form (0954 UTC 21 November 2017)
found at http://aviationweather.gov/adds/metars/
 
KJHW 210907Z 2109/2206 20014KT P6SM SKC WS015/22045KT 
     FM211300 20014G21KT P6SM FEW250 WS015/22045KT 
     FM211500 20017G28KT P6SM SCT250 
     FM211800 21017G28KT P6SM SCT150 BKN200 
     FM212200 21013G22KT P6SM BKN045 
     FM220100 23012G19KT P6SM VCSH OVC035 
     FM220200 24011G18KT 6SM -SHRA OVC020 AMD LTD TO CLD VIS AND WIND